KILM/ILM METAR and TAF weather

Enter ICAO airport designator
Station Type Date Time Source
KILM METAR 2019/08/26 06:53 UTC NOAA

KILM 260653Z AUTO 02009KT 10SM OVC070 21/18 A3002 RMK AO2 SLP165 T02110183


Station Type Date Time Source
KILM Decoded METAR 2019/08/26 06:53 UTC NOAA

Station name not available
Aug 26, 2019 - 02:53 AM EDT / 2019.08.26 0653 UTC
Wind: from the NNE (020 degrees) at 10 MPH (9 KT):0
Visibility: 10 mile(s):0
Sky conditions: overcast
Temperature: 70.0 F (21.1 C)
Dew Point: 64.9 F (18.3 C)
Relative Humidity: 84%
Pressure (altimeter): 30.02 in. Hg (1016 hPa)
ob: KILM 260653Z AUTO 02009KT 10SM OVC070 21/18 A3002 RMK AO2 SLP165 T02110183
cycle: 7

Station Type Date Time Source
KILM TAF 2019/08/26 06:39 UTC NOAA

TAF KILM 260536Z 2606/2706 02009KT P6SM SCT070 BKN220
FM260900 02008KT P6SM BKN050
FM261400 03008G16KT P6SM SCT050 BKN220
FM261700 02009KT P6SM BKN220

Example: see airport list